^^
Saratoga-Weather Station Historical Data
Daily Summary for February 27, 2020 Units:  Metric    English   Both
Daily Weekly Monthly Yearly Custom
  High: Low: Average:
Temperature: 4.2 °C 1.6 °C 3 °C
Dew Point: 2.6 °C -0.6 °C 1.3 °C
Humidity: 93% 83% 89%
Wind Speed: 20.9km/h 0km/h 6.5km/h
Wind Gust: 38.6km/h - -
Wind- - SSE
Pressure: 1015.6 hPa 978.7 hPa -
Precipitation: 5.6 mm    
Historical Graphs
 
 
Tabular Data for February 27, 2020
Time Temperature Dew Point Pressure Wind Wind Speed Wind Gust Humidity Rainfall Rate (Hourly) solar
00:02 1.6 °C 0 °C 1015.6 hPa North 3.2 km/h 8 km/h 89% 0.0 mm 0 W/m2
00:07 1.6 °C -0.2 °C 1015.2 hPa SE 7.9 km/h 11.3 km/h 88% 0.0 mm 0 W/m2
00:12 1.6 °C -0.2 °C 1015.2 hPa North 3.2 km/h 6.4 km/h 88% 0.0 mm 0 W/m2
00:17 1.6 °C -0.2 °C 1014.9 hPa ENE 14.3 km/h 14.5 km/h 88% 0.0 mm 0 W/m2
00:22 1.6 °C -0.2 °C 1014.9 hPa ENE 1.4 km/h 12.9 km/h 88% 0.0 mm 0 W/m2
00:27 1.6 °C -0.2 °C 1014.6 hPa ESE 3.2 km/h 11.3 km/h 88% 0.0 mm 0 W/m2
00:32 1.7 °C -0.1 °C 1014.6 hPa East 6.4 km/h 17.7 km/h 88% 0.0 mm 0 W/m2
00:37 1.7 °C -0.2 °C 1014.2 hPa NNE 6.4 km/h 8 km/h 87% 0.0 mm 0 W/m2
00:42 1.7 °C -0.2 °C 1014.6 hPa NNW 6.4 km/h 8 km/h 87% 0.0 mm 0 W/m2
00:47 1.7 °C -0.2 °C 1014.2 hPa West 6.4 km/h 12.9 km/h 87% 0.0 mm 0 W/m2
00:52 1.8 °C -0.1 °C 1013.9 hPa NNW 13 km/h 12.9 km/h 87% 0.0 mm 0 W/m2
00:57 1.7 °C -0.2 °C 1013.5 hPa NNW 1.4 km/h 9.7 km/h 87% 0.0 mm 0 W/m2
01:02 1.7 °C -0.2 °C 1013.5 hPa NE 3.2 km/h 8 km/h 87% 0.0 mm 0 W/m2
01:07 1.7 °C -0.2 °C 1013.5 hPa SSE 4.7 km/h 4.8 km/h 87% 0.0 mm 0 W/m2
01:12 1.7 °C -0.2 °C 1013.2 hPa WNW 11.1 km/h 16.1 km/h 87% 0.0 mm 0 W/m2
01:17 1.7 °C -0.2 °C 1012.9 hPa NNW 7.9 km/h 8 km/h 87% 0.0 mm 0 W/m2
01:22 1.7 °C -0.2 °C 1012.9 hPa South 3.2 km/h 16.1 km/h 87% 0.0 mm 0 W/m2
01:27 1.7 °C -0.2 °C 1012.5 hPa NNW 4.7 km/h 14.5 km/h 87% 0.0 mm 0 W/m2
01:32 1.7 °C -0.2 °C 1012.5 hPa NE 3.2 km/h 9.7 km/h 87% 0.0 mm 0 W/m2
01:37 1.7 °C -0.2 °C 1012.5 hPa NW 6.4 km/h 14.5 km/h 87% 0.0 mm 0 W/m2
01:42 1.7 °C -0.2 °C 1012.2 hPa North 3.2 km/h 8 km/h 87% 0.0 mm 0 W/m2
01:47 1.7 °C -0.4 °C 1012.2 hPa NE 3.2 km/h 8 km/h 86% 0.0 mm 0 W/m2
01:52 1.8 °C -0.3 °C 1011.9 hPa NW 4.7 km/h 6.4 km/h 86% 0.0 mm 0 W/m2
01:57 1.8 °C -0.3 °C 1011.5 hPa NW 3.2 km/h 14.5 km/h 86% 0.0 mm 0 W/m2
02:02 1.8 °C -0.3 °C 1011.2 hPa NE 6.4 km/h 14.5 km/h 86% 0.0 mm 0 W/m2
02:07 1.9 °C -0.2 °C 1011.2 hPa East 3.2 km/h 8 km/h 86% 0.0 mm 0 W/m2
02:12 1.9 °C -0.2 °C 1011.2 hPa East 4.7 km/h 6.4 km/h 86% 0.0 mm 0 W/m2
02:17 2 °C -0.3 °C 1010.8 hPa North 3.2 km/h 9.7 km/h 85% 0.0 mm 0 W/m2
02:22 2.1 °C -0.2 °C 1010.8 hPa East 17.7 km/h 17.7 km/h 85% 0.0 mm 0 W/m2
02:27 2.1 °C -0.3 °C 1010.5 hPa NNE 3.2 km/h 16.1 km/h 84% 0.0 mm 0 W/m2
02:32 2.1 °C -0.5 °C 1010.5 hPa West 17.7 km/h 17.7 km/h 83% 0.0 mm 0 W/m2
02:37 2.1 °C -0.3 °C 1010.5 hPa North 4.7 km/h 6.4 km/h 84% 0.0 mm 0 W/m2
02:42 2 °C -0.4 °C 1010.2 hPa ESE 13 km/h 16.1 km/h 84% 0.0 mm 0 W/m2
02:47 1.9 °C -0.5 °C 1010.2 hPa WNW 6.4 km/h 8 km/h 84% 0.0 mm 0 W/m2
02:52 1.9 °C -0.5 °C 1010.2 hPa NE 9.7 km/h 9.7 km/h 84% 0.0 mm 0 W/m2
02:57 1.9 °C -0.5 °C 1009.8 hPa NE 6.4 km/h 12.9 km/h 84% 0.0 mm 0 W/m2
03:02 1.8 °C -0.6 °C 1009.8 hPa WNW 4.7 km/h 8 km/h 84% 0.0 mm 0 W/m2
03:07 1.8 °C -0.6 °C 1009.5 hPa ENE 7.9 km/h 12.9 km/h 84% 0.0 mm 0 W/m2
03:12 1.8 °C -0.6 °C 1009.5 hPa NNW 4.7 km/h 14.5 km/h 84% 0.0 mm 0 W/m2
03:17 1.8 °C -0.5 °C 1009.1 hPa ENE 4.7 km/h 9.7 km/h 85% 0.0 mm 0 W/m2
03:22 1.8 °C -0.5 °C 1008.8 hPa NNE 4.7 km/h 9.7 km/h 85% 0.0 mm 0 W/m2
03:27 1.8 °C -0.5 °C 1008.5 hPa East 4.7 km/h 12.9 km/h 85% 0.0 mm 0 W/m2
03:32 1.9 °C -0.4 °C 1008.5 hPa WNW 6.4 km/h 14.5 km/h 85% 0.0 mm 0 W/m2
03:37 1.9 °C -0.4 °C 1008.5 hPa NNE 4.7 km/h 14.5 km/h 85% 0.0 mm 0 W/m2
03:42 1.9 °C -0.4 °C 1008.5 hPa ENE 4.7 km/h 11.3 km/h 85% 0.0 mm 0 W/m2
03:47 2 °C -0.3 °C 1008.5 hPa Calm   14.5 km/h 85% 0.0 mm 0 W/m2
03:52 2 °C -0.3 °C 1008.5 hPa NNE 3.2 km/h 8 km/h 85% 0.0 mm 0 W/m2
03:57 2 °C -0.3 °C 1008.1 hPa WNW 1.4 km/h 12.9 km/h 85% 0.0 mm 0 W/m2
04:02 2 °C -0.1 °C 1008.1 hPa NNE 13 km/h 16.1 km/h 86% 0.0 mm 0 W/m2
04:07 2 °C -0.1 °C 1007.5 hPa West 6.4 km/h 9.7 km/h 86% 0.0 mm 0 W/m2
04:12 2 °C 0.1 °C 1007.5 hPa North 9.7 km/h 9.7 km/h 87% 0.0 mm 0 W/m2
04:17 1.9 °C 0 °C 1007.1 hPa North 3.2 km/h 17.7 km/h 87% 0.0 mm 0 W/m2
04:22 2 °C 0.1 °C 1006.8 hPa NNW 6.4 km/h 8 km/h 87% 0.0 mm 0 W/m2
04:27 2 °C 0.1 °C 1006.8 hPa ENE 13 km/h 12.9 km/h 87% 0.0 mm 0 W/m2
04:32 2.1 °C 0.2 °C 1006.4 hPa NW 4.7 km/h 8 km/h 87% 0.0 mm 0 W/m2
04:37 2.1 °C 0.2 °C 1006.4 hPa East 7.9 km/h 8 km/h 87% 0.0 mm 0 W/m2
04:43 2.2 °C 0.4 °C 1006.4 hPa NE 6.4 km/h 9.7 km/h 88% 0.0 mm 0 W/m2
04:48 2.2 °C 0.4 °C 1006.1 hPa ENE 13 km/h 12.9 km/h 88% 0.0 mm 0 W/m2
04:53 2.2 °C 0.4 °C 1006.1 hPa NNW 9.7 km/h 14.5 km/h 88% 0.0 mm 0 W/m2
04:58 2.2 °C 0.4 °C 1005.8 hPa NE 3.2 km/h 17.7 km/h 88% 0.0 mm 0 W/m2
05:03 2.3 °C 0.5 °C 1005.8 hPa North 1.4 km/h 8 km/h 88% 0.0 mm 0 W/m2
05:08 2.3 °C 0.5 °C 1005.4 hPa East 3.2 km/h 17.7 km/h 88% 0.0 mm 0 W/m2
05:13 2.3 °C 0.7 °C 1005.1 hPa North 3.2 km/h 11.3 km/h 89% 0.0 mm 0 W/m2
05:18 2.2 °C 0.6 °C 1005.1 hPa Calm   14.5 km/h 89% 0.0 mm 0 W/m2
05:23 2.2 °C 0.6 °C 1005.1 hPa NNE 6.4 km/h 8 km/h 89% 0.0 mm 0 W/m2
05:28 2.2 °C 0.7 °C 1004.7 hPa NE 6.4 km/h 14.5 km/h 90% 0.0 mm 0 W/m2
05:33 2.1 °C 0.6 °C 1004.7 hPa NE 6.4 km/h 16.1 km/h 90% 0.0 mm 0 W/m2
05:38 2.1 °C 0.8 °C 1004.7 hPa NNE 3.2 km/h 12.9 km/h 91% 0.0 mm 0 W/m2
05:43 2 °C 0.7 °C 1004.4 hPa NE 1.4 km/h 16.1 km/h 91% 0.0 mm 0 W/m2
05:48 2 °C 0.7 °C 1004.4 hPa NW 3.2 km/h 9.7 km/h 91% 0.0 mm 0 W/m2
05:53 1.9 °C 0.6 °C 1004.4 hPa North 4.7 km/h 14.5 km/h 91% 0.0 mm 0 W/m2
05:58 1.9 °C 0.6 °C 1004.1 hPa NE 4.7 km/h 6.4 km/h 91% 0.0 mm 0 W/m2
06:03 2 °C 0.5 °C 1004.1 hPa NNE 3.2 km/h 12.9 km/h 90% 0.0 mm 0 W/m2
06:08 2 °C 0.5 °C 1003.7 hPa North 4.7 km/h 8 km/h 90% 0.0 mm 0 W/m2
06:13 2 °C 0.5 °C 1003.7 hPa ENE 4.7 km/h 8 km/h 90% 0.0 mm 0 W/m2
06:18 2 °C 0.5 °C 1003.7 hPa NNW 7.9 km/h 16.1 km/h 90% 0.0 mm 0 W/m2
06:23 2 °C 0.5 °C 1003.7 hPa North 1.4 km/h 17.7 km/h 90% 0.0 mm 0 W/m2
06:28 2.1 °C 0.6 °C 1003.4 hPa NNE 1.4 km/h 8 km/h 90% 0.0 mm 0 W/m2
06:33 2 °C 0.5 °C 1003.4 hPa NE 4.7 km/h 17.7 km/h 90% 0.0 mm 0 W/m2
06:38 2 °C 0.7 °C 1003.4 hPa WNW 3.2 km/h 8 km/h 91% 0.0 mm 0 W/m2
06:43 2 °C 0.7 °C 1003.0 hPa WNW 9.7 km/h 9.7 km/h 91% 0.0 mm 0 W/m2
06:48 1.9 °C 0.6 °C 1003.0 hPa North 6.4 km/h 11.3 km/h 91% 0.0 mm 0 W/m2
06:53 1.9 °C 0.7 °C 1003.0 hPa NNE 4.7 km/h 12.9 km/h 92% 0.0 mm 0 W/m2
06:58 1.9 °C 0.7 °C 1002.7 hPa North 6.4 km/h 8 km/h 92% 0.0 mm 0 W/m2
07:03 1.9 °C 0.7 °C 1002.4 hPa NE 7.9 km/h 14.5 km/h 92% 0.0 mm 0 W/m2
07:08 1.9 °C 0.7 °C 1002.0 hPa NE 3.2 km/h 11.3 km/h 92% 0.0 mm 0 W/m2
07:13 1.9 °C 0.7 °C 1002.0 hPa ESE 6.4 km/h 14.5 km/h 92% 0.0 mm 0 W/m2
07:18 1.9 °C 0.7 °C 1002.0 hPa NE 4.7 km/h 9.7 km/h 92% 0.0 mm 0 W/m2
07:23 1.9 °C 0.9 °C 1001.7 hPa North 4.7 km/h 8 km/h 93% 0.2 mm 0 W/m2
07:28 1.9 °C 0.9 °C 1001.7 hPa NNE 1.4 km/h 11.3 km/h 93% 0.2 mm 0 W/m2
07:33 1.9 °C 0.9 °C 1001.4 hPa NW 3.2 km/h 17.7 km/h 93% 0.2 mm 0 W/m2
07:38 2 °C 1 °C 1001.4 hPa WSW 3.2 km/h 14.5 km/h 93% 0.2 mm 0 W/m2
07:43 2.1 °C 0.9 °C 1001.4 hPa NE 1.4 km/h 17.7 km/h 92% 0.2 mm 0 W/m2
07:48 2.1 °C 0.9 °C 1001.4 hPa NW 3.2 km/h 11.3 km/h 92% 0.2 mm 0 W/m2
07:53 2.2 °C 1 °C 1001.0 hPa NE 4.7 km/h 8 km/h 92% 0.2 mm 0 W/m2
07:58 2.3 °C 1.1 °C 1000.7 hPa ENE 1.4 km/h 8 km/h 92% 0.2 mm 0 W/m2
08:03 2.3 °C 1.1 °C 1000.7 hPa North 4.7 km/h 6.4 km/h 92% 0.2 mm 0 W/m2
08:08 2.4 °C 1.1 °C 1000.3 hPa NNW 6.4 km/h 12.9 km/h 91% 0.2 mm 0 W/m2
08:13 2.4 °C 1.1 °C 1000.3 hPa ENE 4.7 km/h 14.5 km/h 91% 0.2 mm 0 W/m2
08:18 2.5 °C 1 °C 1000.3 hPa North 13 km/h 12.9 km/h 90% 0.2 mm 0 W/m2
08:23 2.6 °C 1.1 °C 1000.0 hPa North 4.7 km/h 14.5 km/h 90% 0.0 mm 0 W/m2
08:28 2.7 °C 1.1 °C 999.7 hPa North 6.4 km/h 8 km/h 89% 0.0 mm 0 W/m2
08:33 2.8 °C 1.2 °C 999.7 hPa ENE 6.4 km/h 9.7 km/h 89% 0.0 mm 0 W/m2
08:38 2.8 °C 1.2 °C 999.3 hPa West 4.7 km/h 8 km/h 89% 0.0 mm 0 W/m2
08:43 2.9 °C 1.3 °C 999.0 hPa NE 7.9 km/h 17.7 km/h 89% 0.0 mm 0 W/m2
08:48 3 °C 1.2 °C 999.0 hPa East 1.4 km/h 11.3 km/h 88% 0.0 mm 5 W/m2
08:53 3.1 °C 1.3 °C 998.6 hPa North 3.2 km/h 17.7 km/h 88% 0.0 mm 0 W/m2
08:58 3.2 °C 1.2 °C 998.6 hPa WNW 4.7 km/h 9.7 km/h 87% 0.0 mm 5 W/m2
09:03 3.2 °C 1.2 °C 998.3 hPa NNW 3.2 km/h 14.5 km/h 87% 0.0 mm 9 W/m2
09:08 3.3 °C 1.3 °C 998.3 hPa NE 6.4 km/h 12.9 km/h 87% 0.0 mm 12 W/m2
09:13 3.3 °C 1.3 °C 998.3 hPa East 17.7 km/h 19.3 km/h 87% 0.0 mm 11 W/m2
09:18 3.4 °C 1.3 °C 998.0 hPa North 4.7 km/h 11.3 km/h 86% 0.0 mm 11 W/m2
09:23 3.4 °C 1.3 °C 998.0 hPa ENE 6.4 km/h 14.5 km/h 86% 0.0 mm 12 W/m2
09:28 3.5 °C 1.4 °C 998.0 hPa NNE 4.7 km/h 14.5 km/h 86% 0.0 mm 16 W/m2
09:33 3.5 °C 1.4 °C 997.6 hPa East 4.7 km/h 12.9 km/h 86% 0.0 mm 18 W/m2
09:38 3.5 °C 1.4 °C 997.6 hPa NNE 6.4 km/h 14.5 km/h 86% 0.0 mm 18 W/m2
09:43 3.4 °C 1.3 °C 997.3 hPa ENE 14.3 km/h 19.3 km/h 86% 0.0 mm 18 W/m2
09:48 3.4 °C 1.1 °C 997.0 hPa NNW 13 km/h 22.5 km/h 85% 0.0 mm 26 W/m2
09:53 3.4 °C 1.1 °C 997.0 hPa NNW 4.7 km/h 27.4 km/h 85% 0.0 mm 26 W/m2
09:58 3.4 °C 1.1 °C 996.6 hPa NNW 16.3 km/h 19.3 km/h 85% 0.0 mm 18 W/m2
10:03 3.4 °C 1.1 °C 996.6 hPa East 6.4 km/h 27.4 km/h 85% 0.0 mm 19 W/m2
10:08 3.4 °C 1 °C 996.6 hPa North 6.4 km/h 20.9 km/h 84% 0.0 mm 18 W/m2
10:13 3.4 °C 1.1 °C 996.3 hPa North 4.7 km/h 6.4 km/h 85% 0.0 mm 18 W/m2
10:18 3.4 °C 1.1 °C 996.3 hPa East 6.4 km/h 20.9 km/h 85% 0.0 mm 18 W/m2
10:28 3.4 °C 1.1 °C 995.9 hPa North 4.7 km/h 19.3 km/h 85% 0.0 mm 16 W/m2
10:33 3.4 °C 1.1 °C 995.6 hPa NNW 6.4 km/h 14.5 km/h 85% 0.0 mm 18 W/m2
10:38 3.4 °C 1.1 °C 995.3 hPa NE 7.9 km/h 14.5 km/h 85% 0.0 mm 19 W/m2
10:43 3.5 °C 1.2 °C 995.3 hPa West 9.7 km/h 12.9 km/h 85% 0.0 mm 21 W/m2
10:48 3.5 °C 1.2 °C 995.3 hPa NW 4.7 km/h 8 km/h 85% 0.0 mm 18 W/m2
10:53 3.5 °C 1.2 °C 995.3 hPa East 3.2 km/h 12.9 km/h 85% 0.0 mm 21 W/m2
10:58 3.6 °C 1.3 °C 995.3 hPa SSE 4.7 km/h 19.3 km/h 85% 0.0 mm 25 W/m2
11:03 3.6 °C 1.2 °C 994.9 hPa NNW 6.4 km/h 14.5 km/h 84% 0.0 mm 26 W/m2
11:08 3.6 °C 1.2 °C 994.6 hPa NW 9.7 km/h 20.9 km/h 84% 0.0 mm 23 W/m2
11:13 3.6 °C 1.2 °C 994.2 hPa NW 3.2 km/h 22.5 km/h 84% 0.0 mm 26 W/m2
11:18 3.6 °C 1.2 °C 994.6 hPa East 1.4 km/h 16.1 km/h 84% 0.0 mm 23 W/m2
11:23 3.6 °C 1.2 °C 994.2 hPa North 4.7 km/h 9.7 km/h 84% 0.0 mm 21 W/m2
11:28 3.6 °C 1.2 °C 994.2 hPa NNW 7.9 km/h 11.3 km/h 84% 0.0 mm 21 W/m2
11:33 3.6 °C 1.2 °C 994.2 hPa North 4.7 km/h 19.3 km/h 84% 0.0 mm 28 W/m2
11:38 3.6 °C 1.2 °C 993.6 hPa NW 4.7 km/h 27.4 km/h 84% 0.0 mm 28 W/m2
11:43 3.6 °C 1.3 °C 993.6 hPa ESE 6.4 km/h 16.1 km/h 85% 0.0 mm 30 W/m2
11:48 3.5 °C 1.2 °C 993.6 hPa North 3.2 km/h 6.4 km/h 85% 0.0 mm 33 W/m2
11:53 3.4 °C 1.1 °C 993.2 hPa NE 7.9 km/h 9.7 km/h 85% 0.0 mm 37 W/m2
11:58 3.3 °C 1.2 °C 993.2 hPa NE 1.4 km/h 9.7 km/h 86% 0.0 mm 49 W/m2
12:03 3.2 °C 1.2 °C 992.9 hPa North 7.9 km/h 16.1 km/h 87% 0.0 mm 53 W/m2
12:08 3.1 °C 1.1 °C 992.5 hPa NNW 4.7 km/h 20.9 km/h 87% 0.0 mm 39 W/m2
12:13 3.1 °C 1.3 °C 992.5 hPa WSW 14.3 km/h 14.5 km/h 88% 0.0 mm 46 W/m2
12:18 3.1 °C 1.3 °C 992.2 hPa ENE 9.7 km/h 20.9 km/h 88% 0.2 mm 35 W/m2
12:23 3.1 °C 1.3 °C 992.2 hPa NE 11.1 km/h 16.1 km/h 88% 0.2 mm 44 W/m2
12:28 3.1 °C 1.3 °C 991.9 hPa SSE 3.2 km/h 20.9 km/h 88% 0.2 mm 35 W/m2
12:33 3.1 °C 1.3 °C 991.5 hPa North 3.2 km/h 14.5 km/h 88% 0.2 mm 35 W/m2
12:38 3.1 °C 1.3 °C 991.5 hPa North 6.4 km/h 19.3 km/h 88% 0.2 mm 35 W/m2
12:43 3.2 °C 1.4 °C 991.5 hPa NE 3.2 km/h 14.5 km/h 88% 0.2 mm 33 W/m2
12:48 3.2 °C 1.4 °C 990.9 hPa North 4.7 km/h 17.7 km/h 88% 0.2 mm 33 W/m2
12:53 3.2 °C 1.4 °C 990.9 hPa East 11.1 km/h 16.1 km/h 88% 0.2 mm 30 W/m2
12:58 3.1 °C 1.3 °C 990.5 hPa NNE 7.9 km/h 20.9 km/h 88% 0.2 mm 28 W/m2
13:03 3.1 °C 1.3 °C 990.5 hPa NW 6.4 km/h 12.9 km/h 88% 0.5 mm 21 W/m2
13:08 3.1 °C 1.3 °C 990.2 hPa ENE 4.7 km/h 16.1 km/h 88% 0.5 mm 26 W/m2
13:13 3.1 °C 1.3 °C 990.2 hPa NNE 7.9 km/h 19.3 km/h 88% 0.5 mm 19 W/m2
13:18 3.1 °C 1.3 °C 989.5 hPa WNW 6.4 km/h 12.9 km/h 88% 0.2 mm 32 W/m2
13:23 3.1 °C 1.3 °C 989.5 hPa NW 9.7 km/h 20.9 km/h 88% 0.2 mm 33 W/m2
13:28 3.1 °C 1.5 °C 989.5 hPa ENE 6.4 km/h 11.3 km/h 89% 0.2 mm 35 W/m2
13:33 3.1 °C 1.5 °C 989.2 hPa ENE 16.3 km/h 19.3 km/h 89% 0.2 mm 35 W/m2
13:38 3.1 °C 1.5 °C 989.2 hPa East 7.9 km/h 12.9 km/h 89% 0.2 mm 28 W/m2
13:43 3.1 °C 1.5 °C 988.5 hPa SE 6.4 km/h 16.1 km/h 89% 0.2 mm 26 W/m2
13:48 3.2 °C 1.6 °C 988.5 hPa NNE 1.4 km/h 11.3 km/h 89% 0.2 mm 19 W/m2
13:53 3.2 °C 1.6 °C 988.1 hPa NNW 3.2 km/h 12.9 km/h 89% 0.2 mm 21 W/m2
13:58 3.3 °C 1.7 °C 988.1 hPa East 4.7 km/h 6.4 km/h 89% 0.2 mm 21 W/m2
14:03 3.3 °C 1.7 °C 987.8 hPa NNE 3.2 km/h 17.7 km/h 89% 0.0 mm 16 W/m2
14:08 3.3 °C 1.7 °C 987.1 hPa East 6.4 km/h 11.3 km/h 89% 0.0 mm 19 W/m2
14:13 3.4 °C 1.8 °C 987.5 hPa NE 9.7 km/h 17.7 km/h 89% 0.2 mm 16 W/m2
14:18 3.4 °C 1.8 °C 987.1 hPa NE 11.1 km/h 17.7 km/h 89% 0.2 mm 18 W/m2
14:23 3.5 °C 1.9 °C 987.1 hPa ENE 3.2 km/h 14.5 km/h 89% 0.2 mm 16 W/m2
14:28 3.5 °C 1.9 °C 987.1 hPa North 6.4 km/h 14.5 km/h 89% 0.2 mm 14 W/m2
14:33 3.5 °C 1.9 °C 986.8 hPa South 4.7 km/h 9.7 km/h 89% 0.2 mm 12 W/m2
14:38 3.6 °C 2 °C 986.8 hPa NE 4.7 km/h 11.3 km/h 89% 0.2 mm 14 W/m2
14:43 3.6 °C 2 °C 986.5 hPa NW 4.7 km/h 12.9 km/h 89% 0.2 mm 12 W/m2
14:48 3.6 °C 2 °C 986.5 hPa NE 11.1 km/h 24.1 km/h 89% 0.2 mm 12 W/m2
14:53 3.6 °C 2 °C 986.1 hPa NE 3.2 km/h 14.5 km/h 89% 0.2 mm 12 W/m2
14:58 3.6 °C 2 °C 985.8 hPa ESE 6.4 km/h 22.5 km/h 89% 0.2 mm 14 W/m2
15:03 3.6 °C 2 °C 986.1 hPa NNE 4.7 km/h 20.9 km/h 89% 0.2 mm 12 W/m2
15:08 3.6 °C 2 °C 985.4 hPa NE 6.4 km/h 14.5 km/h 89% 0.5 mm 11 W/m2
15:13 3.6 °C 2.1 °C 985.4 hPa NNE 4.7 km/h 16.1 km/h 90% 0.2 mm 11 W/m2
15:18 3.7 °C 2.2 °C 985.1 hPa East 11.1 km/h 14.5 km/h 90% 0.2 mm 9 W/m2
15:23 3.7 °C 2.2 °C 985.1 hPa South 14.3 km/h 14.5 km/h 90% 0.5 mm 7 W/m2
15:28 3.7 °C 2.4 °C 984.8 hPa NNE 1.4 km/h 9.7 km/h 91% 0.5 mm 9 W/m2
15:33 3.7 °C 2.4 °C 984.8 hPa East 9.7 km/h 17.7 km/h 91% 0.5 mm 5 W/m2
15:38 3.8 °C 2.5 °C 984.8 hPa East 11.1 km/h 16.1 km/h 91% 0.5 mm 5 W/m2
15:43 3.8 °C 2.5 °C 984.8 hPa SE 6.4 km/h 16.1 km/h 91% 0.5 mm 5 W/m2
15:48 3.8 °C 2.5 °C 984.4 hPa ESE 16.3 km/h 17.7 km/h 91% 0.5 mm 5 W/m2
15:53 3.8 °C 2.5 °C 984.4 hPa ENE 3.2 km/h 12.9 km/h 91% 0.8 mm 0 W/m2
15:58 3.8 °C 2.5 °C 984.1 hPa ESE 4.7 km/h 17.7 km/h 91% 0.8 mm 0 W/m2
16:03 3.7 °C 2.4 °C 983.8 hPa NE 9.7 km/h 20.9 km/h 91% 0.8 mm 0 W/m2
16:08 3.7 °C 2.4 °C 983.8 hPa ESE 11.1 km/h 17.7 km/h 91% 0.8 mm 0 W/m2
16:13 3.6 °C 2.3 °C 983.8 hPa ENE 9.7 km/h 20.9 km/h 91% 0.8 mm 0 W/m2
16:18 3.5 °C 2.2 °C 983.4 hPa East 6.4 km/h 17.7 km/h 91% 1.0 mm 0 W/m2
16:23 3.5 °C 2.3 °C 983.4 hPa ESE 4.7 km/h 20.9 km/h 92% 0.8 mm 0 W/m2
16:28 3.4 °C 2.2 °C 983.4 hPa NNE 3.2 km/h 14.5 km/h 92% 0.8 mm 0 W/m2
16:33 3.4 °C 2.2 °C 983.1 hPa ESE 16.3 km/h 16.1 km/h 92% 0.8 mm 0 W/m2
16:38 3.4 °C 2.2 °C 983.1 hPa ENE 7.9 km/h 16.1 km/h 92% 1.0 mm 0 W/m2
16:43 3.4 °C 2.2 °C 982.7 hPa East 9.7 km/h 19.3 km/h 92% 0.8 mm 0 W/m2
16:48 3.4 °C 2.2 °C 982.7 hPa NE 3.2 km/h 17.7 km/h 92% 0.8 mm 0 W/m2
16:53 3.4 °C 2.2 °C 982.4 hPa ENE 13 km/h 25.7 km/h 92% 0.5 mm 0 W/m2
16:58 3.4 °C 2.2 °C 982.0 hPa ENE 3.2 km/h 20.9 km/h 92% 0.5 mm 0 W/m2
17:03 3.4 °C 2.2 °C 982.0 hPa ENE 4.7 km/h 25.7 km/h 92% 0.5 mm 0 W/m2
17:08 3.4 °C 2.2 °C 982.0 hPa SSE 6.4 km/h 27.4 km/h 92% 0.5 mm 0 W/m2
17:13 3.6 °C 2.3 °C 982.0 hPa NNE 6.4 km/h 20.9 km/h 91% 0.5 mm 0 W/m2
17:18 3.6 °C 2.3 °C 981.7 hPa ENE 6.4 km/h 14.5 km/h 91% 0.5 mm 0 W/m2
17:23 3.6 °C 2.3 °C 981.7 hPa NE 3.2 km/h 8 km/h 91% 0.8 mm 0 W/m2
17:28 3.6 °C 2.3 °C 981.4 hPa NNE 7.9 km/h 14.5 km/h 91% 1.0 mm 0 W/m2
17:34 3.6 °C 2.3 °C 981.7 hPa NW 14.3 km/h 17.7 km/h 91% 1.3 mm 0 W/m2
17:39 3.7 °C 2.4 °C 981.4 hPa ESE 9.7 km/h 16.1 km/h 91% 1.3 mm 0 W/m2
17:44 3.7 °C 2.4 °C 981.4 hPa North 6.4 km/h 22.5 km/h 91% 1.3 mm 0 W/m2
17:49 3.7 °C 2.4 °C 981.4 hPa ENE 9.7 km/h 14.5 km/h 91% 1.5 mm 0 W/m2
17:54 3.7 °C 2.4 °C 981.4 hPa ENE 4.7 km/h 9.7 km/h 91% 1.8 mm 0 W/m2
17:59 3.6 °C 2.3 °C 981.0 hPa NNE 11.1 km/h 12.9 km/h 91% 2.0 mm 0 W/m2
18:04 3.6 °C 2.3 °C 981.0 hPa West 11.1 km/h 12.9 km/h 91% 2.3 mm 0 W/m2
18:09 3.5 °C 2.2 °C 981.0 hPa ENE 7.9 km/h 9.7 km/h 91% 2.3 mm 0 W/m2
18:14 3.4 °C 2.2 °C 981.0 hPa NNW 3.2 km/h 11.3 km/h 92% 2.5 mm 0 W/m2
18:19 3.4 °C 2.2 °C 981.0 hPa NW 4.7 km/h 8 km/h 92% 2.3 mm 0 W/m2
18:24 3.4 °C 2.2 °C 980.7 hPa NNE 4.7 km/h 9.7 km/h 92% 2.3 mm 0 W/m2
18:29 3.3 °C 2.1 °C 980.7 hPa ENE 9.7 km/h 16.1 km/h 92% 2.3 mm 0 W/m2
18:34 3.3 °C 2.1 °C 980.4 hPa NE 6.4 km/h 16.1 km/h 92% 2.0 mm 0 W/m2
18:39 3.3 °C 2.1 °C 980.4 hPa NE 3.2 km/h 22.5 km/h 92% 1.8 mm 0 W/m2
18:44 3.3 °C 2.1 °C 980.7 hPa NNE 7.9 km/h 8 km/h 92% 1.8 mm 0 W/m2
18:49 3.3 °C 2.1 °C 980.4 hPa NNE 6.4 km/h 11.3 km/h 92% 1.5 mm 0 W/m2
18:54 3.2 °C 2 °C 980.4 hPa NW 4.7 km/h 9.7 km/h 92% 1.3 mm 0 W/m2
18:59 3.3 °C 2.1 °C 980.4 hPa North 3.2 km/h 12.9 km/h 92% 1.3 mm 0 W/m2
19:04 3.3 °C 2.1 °C 980.0 hPa NNE 6.4 km/h 14.5 km/h 92% 1.0 mm 0 W/m2
19:09 3.4 °C 2.2 °C 980.4 hPa ENE 3.2 km/h 19.3 km/h 92% 0.5 mm 0 W/m2
19:14 3.4 °C 2.2 °C 980.0 hPa North 13 km/h 17.7 km/h 92% 0.5 mm 0 W/m2
19:19 3.5 °C 2.3 °C 980.0 hPa ENE 6.4 km/h 12.9 km/h 92% 0.5 mm 0 W/m2
19:24 3.6 °C 2.4 °C 980.0 hPa East 11.1 km/h 17.7 km/h 92% 0.5 mm 0 W/m2
19:29 3.7 °C 2.4 °C 980.0 hPa NNE 4.7 km/h 22.5 km/h 91% 0.5 mm 0 W/m2
19:34 3.7 °C 2.4 °C 979.7 hPa North 6.4 km/h 14.5 km/h 91% 0.5 mm 0 W/m2
19:39 3.8 °C 2.5 °C 979.3 hPa SE 11.1 km/h 22.5 km/h 91% 0.5 mm 0 W/m2
19:44 3.9 °C 2.6 °C 979.7 hPa West 4.7 km/h 17.7 km/h 91% 0.5 mm 0 W/m2
19:49 3.9 °C 2.6 °C 980.0 hPa NNW 13 km/h 20.9 km/h 91% 0.5 mm 0 W/m2
19:54 4.1 °C 2.6 °C 979.7 hPa NE 20.9 km/h 20.9 km/h 90% 0.5 mm 0 W/m2
19:59 4.1 °C 2.6 °C 979.7 hPa NW 14.3 km/h 25.7 km/h 90% 0.2 mm 0 W/m2
20:04 4.1 °C 2.6 °C 979.3 hPa NNE 3.2 km/h 14.5 km/h 90% 0.2 mm 0 W/m2
20:09 4.1 °C 2.6 °C 979.7 hPa SW 3.2 km/h 17.7 km/h 90% 0.2 mm 0 W/m2
20:14 4 °C 2.5 °C 979.3 hPa WNW 7.9 km/h 20.9 km/h 90% 0.2 mm 0 W/m2
20:19 4.1 °C 2.6 °C 979.3 hPa North 7.9 km/h 25.7 km/h 90% 0.2 mm 0 W/m2
20:24 4.1 °C 2.6 °C 979.3 hPa North 17.7 km/h 17.7 km/h 90% 0.2 mm 0 W/m2
20:29 4.1 °C 2.6 °C 979.3 hPa SE 6.4 km/h 25.7 km/h 90% 0.0 mm 0 W/m2
20:34 4.1 °C 2.6 °C 979.3 hPa NNE 13 km/h 12.9 km/h 90% 0.0 mm 0 W/m2
20:39 4.1 °C 2.6 °C 979.0 hPa WNW 11.1 km/h 19.3 km/h 90% 0.0 mm 0 W/m2
20:44 4.1 °C 2.5 °C 979.3 hPa ENE 11.1 km/h 20.9 km/h 89% 0.0 mm 0 W/m2
20:49 4.1 °C 2.5 °C 979.0 hPa NNW 6.4 km/h 14.5 km/h 89% 0.0 mm 0 W/m2
20:54 4.1 °C 2.5 °C 979.0 hPa North 9.7 km/h 20.9 km/h 89% 0.0 mm 0 W/m2
20:59 4.1 °C 2.5 °C 979.0 hPa NNE 6.4 km/h 9.7 km/h 89% 0.0 mm 0 W/m2
21:04 4.1 °C 2.5 °C 978.7 hPa WNW 13 km/h 35.4 km/h 89% 0.0 mm 0 W/m2
21:09 4.2 °C 2.5 °C 978.7 hPa NNE 1.4 km/h 16.1 km/h 89% 0.0 mm 0 W/m2
21:14 4.2 °C 2.5 °C 978.7 hPa NW 7.9 km/h 12.9 km/h 89% 0.0 mm 0 W/m2
21:19 4.2 °C 2.4 °C 978.7 hPa WNW 11.1 km/h 32.2 km/h 88% 0.0 mm 0 W/m2
21:24 4.2 °C 2.4 °C 978.7 hPa ENE 4.7 km/h 19.3 km/h 88% 0.0 mm 0 W/m2
21:29 4.2 °C 2.4 °C 978.7 hPa NW 3.2 km/h 14.5 km/h 88% 0.0 mm 0 W/m2
21:34 4.2 °C 2.4 °C 978.7 hPa NNE 3.2 km/h 17.7 km/h 88% 0.0 mm 0 W/m2
21:39 4.2 °C 2.2 °C 978.7 hPa North 7.9 km/h 17.7 km/h 87% 0.0 mm 0 W/m2
21:44 4.2 °C 2.2 °C 979.0 hPa WNW 7.9 km/h 38.6 km/h 87% 0.0 mm 0 W/m2
21:49 4.2 °C 2.4 °C 978.7 hPa WNW 7.9 km/h 16.1 km/h 88% 0.0 mm 0 W/m2
21:54 4.1 °C 2.3 °C 978.7 hPa West 17.7 km/h 17.7 km/h 88% 0.0 mm 0 W/m2
21:59 4.1 °C 2.3 °C 979.0 hPa WSW 14.3 km/h 24.1 km/h 88% 0.0 mm 0 W/m2
22:04 4.1 °C 2.3 °C 979.3 hPa NE 4.7 km/h 19.3 km/h 88% 0.0 mm 0 W/m2
22:09 4.1 °C 2.3 °C 979.0 hPa NNW 3.2 km/h 20.9 km/h 88% 0.0 mm 0 W/m2
22:14 4.1 °C 2.3 °C 979.0 hPa NW 4.7 km/h 9.7 km/h 88% 0.0 mm 0 W/m2
22:19 4 °C 2.2 °C 979.0 hPa NE 7.9 km/h 20.9 km/h 88% 0.0 mm 0 W/m2
22:24 4 °C 2.2 °C 978.7 hPa SSE 1.4 km/h 9.7 km/h 88% 0.0 mm 0 W/m2
22:29 3.9 °C 2.3 °C 978.7 hPa West 3.2 km/h 12.9 km/h 89% 0.0 mm 0 W/m2
22:34 3.9 °C 2.3 °C 979.0 hPa ESE 6.4 km/h 16.1 km/h 89% 0.0 mm 0 W/m2
22:39 3.9 °C 2.3 °C 979.0 hPa North 6.4 km/h 14.5 km/h 89% 0.0 mm 0 W/m2
22:44 3.9 °C 2.3 °C 979.0 hPa West 9.7 km/h 11.3 km/h 89% 0.0 mm 0 W/m2
22:49 3.9 °C 2.3 °C 979.0 hPa WNW 1.4 km/h 20.9 km/h 89% 0.0 mm 0 W/m2
22:54 3.9 °C 2.3 °C 978.7 hPa ENE 9.7 km/h 11.3 km/h 89% 0.0 mm 0 W/m2
22:59 3.9 °C 2.4 °C 979.0 hPa NNW 7.9 km/h 14.5 km/h 90% 0.0 mm 0 W/m2
23:04 3.9 °C 2.4 °C 978.7 hPa NE 3.2 km/h 20.9 km/h 90% 0.0 mm 0 W/m2
23:09 3.9 °C 2.4 °C 978.7 hPa NNE 1.4 km/h 9.7 km/h 90% 0.0 mm 0 W/m2
23:14 3.9 °C 2.3 °C 978.7 hPa NE 7.9 km/h 29 km/h 89% 0.0 mm 0 W/m2
23:19 3.9 °C 2.3 °C 978.7 hPa WNW 7.9 km/h 22.5 km/h 89% 0.0 mm 0 W/m2
23:24 3.9 °C 2.4 °C 979.0 hPa NNE 4.7 km/h 29 km/h 90% 0.0 mm 0 W/m2
23:29 3.9 °C 2.4 °C 978.7 hPa WNW 4.7 km/h 11.3 km/h 90% 0.0 mm 0 W/m2
23:34 3.9 °C 2.4 °C 978.7 hPa NNW 6.4 km/h 17.7 km/h 90% 0.0 mm 0 W/m2
23:39 3.9 °C 2.4 °C 978.7 hPa SW 1.4 km/h 9.7 km/h 90% 0.0 mm 0 W/m2
23:45 3.9 °C 2.4 °C 978.7 hPa SW 4.7 km/h 14.5 km/h 90% 0.0 mm 0 W/m2
23:50 3.9 °C 2.4 °C 978.7 hPa North 3.2 km/h 11.3 km/h 90% 0.0 mm 0 W/m2
23:55 4 °C 2.5 °C 978.7 hPa North 3.2 km/h 14.5 km/h 90% 0.0 mm 0 W/m2
Juneau County Weather
Compliments of Weather Underground - 4 mb